sensor_id;sensor_type;location;lat;lon;timestamp;temperature;humidity
20759;DHT22;10539;53.686;9.158;2022-07-12T00:01:53;16.00;99.90
20759;DHT22;10539;53.686;9.158;2022-07-12T00:04:19;15.90;99.90
20759;DHT22;10539;53.686;9.158;2022-07-12T00:06:46;15.80;99.90
20759;DHT22;10539;53.686;9.158;2022-07-12T00:09:11;15.80;99.90
20759;DHT22;10539;53.686;9.158;2022-07-12T00:11:38;15.90;99.90
20759;DHT22;10539;53.686;9.158;2022-07-12T00:14:05;16.00;99.90
20759;DHT22;10539;53.686;9.158;2022-07-12T00:16:31;16.10;99.90
20759;DHT22;10539;53.686;9.158;2022-07-12T00:18:57;16.10;99.90
20759;DHT22;10539;53.686;9.158;2022-07-12T00:21:23;16.20;99.90
20759;DHT22;10539;53.686;9.158;2022-07-12T00:23:48;16.20;99.90
20759;DHT22;10539;53.686;9.158;2022-07-12T00:26:14;16.20;99.90
20759;DHT22;10539;53.686;9.158;2022-07-12T00:28:40;16.10;99.90
20759;DHT22;10539;53.686;9.158;2022-07-12T00:31:06;16.00;99.90
20759;DHT22;10539;53.686;9.158;2022-07-12T00:33:32;15.90;99.90
20759;DHT22;10539;53.686;9.158;2022-07-12T00:35:58;15.80;99.90
20759;DHT22;10539;53.686;9.158;2022-07-12T00:38:24;15.80;99.90
20759;DHT22;10539;53.686;9.158;2022-07-12T00:40:49;15.80;99.90
20759;DHT22;10539;53.686;9.158;2022-07-12T00:43:15;15.80;99.90
20759;DHT22;10539;53.686;9.158;2022-07-12T00:45:41;15.70;99.90
20759;DHT22;10539;53.686;9.158;2022-07-12T00:48:07;15.70;99.90
20759;DHT22;10539;53.686;9.158;2022-07-12T00:50:34;15.70;99.90
20759;DHT22;10539;53.686;9.158;2022-07-12T00:53:00;15.70;99.90
20759;DHT22;10539;53.686;9.158;2022-07-12T00:55:26;15.60;99.90
20759;DHT22;10539;53.686;9.158;2022-07-12T00:57:52;15.70;99.90
20759;DHT22;10539;53.686;9.158;2022-07-12T01:00:24;15.70;99.90
20759;DHT22;10539;53.686;9.158;2022-07-12T01:02:52;15.70;99.90
20759;DHT22;10539;53.686;9.158;2022-07-12T01:05:19;15.70;99.90
20759;DHT22;10539;53.686;9.158;2022-07-12T01:07:45;15.70;99.90
20759;DHT22;10539;53.686;9.158;2022-07-12T01:10:11;15.60;99.90
20759;DHT22;10539;53.686;9.158;2022-07-12T01:12:37;15.70;99.90
20759;DHT22;10539;53.686;9.158;2022-07-12T01:15:05;15.70;99.90
20759;DHT22;10539;53.686;9.158;2022-07-12T01:17:31;15.70;99.90
20759;DHT22;10539;53.686;9.158;2022-07-12T01:19:58;15.70;99.90
20759;DHT22;10539;53.686;9.158;2022-07-12T01:22:31;15.70;99.90
20759;DHT22;10539;53.686;9.158;2022-07-12T01:24:59;15.70;99.90
20759;DHT22;10539;53.686;9.158;2022-07-12T01:27:25;15.70;99.90
20759;DHT22;10539;53.686;9.158;2022-07-12T01:29:51;15.70;99.90
20759;DHT22;10539;53.686;9.158;2022-07-12T01:32:17;15.60;99.90
20759;DHT22;10539;53.686;9.158;2022-07-12T01:35:02;15.60;99.90
20759;DHT22;10539;53.686;9.158;2022-07-12T01:37:38;15.70;99.90
20759;DHT22;10539;53.686;9.158;2022-07-12T01:40:08;15.70;99.90
20759;DHT22;10539;53.686;9.158;2022-07-12T01:42:35;15.70;99.90
20759;DHT22;10539;53.686;9.158;2022-07-12T01:45:00;15.70;99.90
20759;DHT22;10539;53.686;9.158;2022-07-12T01:47:30;15.70;99.90
20759;DHT22;10539;53.686;9.158;2022-07-12T01:49:56;15.70;99.90
20759;DHT22;10539;53.686;9.158;2022-07-12T01:52:23;15.70;99.90
20759;DHT22;10539;53.686;9.158;2022-07-12T01:54:49;15.70;99.90
20759;DHT22;10539;53.686;9.158;2022-07-12T01:57:15;15.70;99.90
20759;DHT22;10539;53.686;9.158;2022-07-12T01:59:41;15.70;99.90
20759;DHT22;10539;53.686;9.158;2022-07-12T02:02:07;15.70;99.90
20759;DHT22;10539;53.686;9.158;2022-07-12T02:04:34;15.70;99.90
20759;DHT22;10539;53.686;9.158;2022-07-12T02:07:00;15.70;99.90
20759;DHT22;10539;53.686;9.158;2022-07-12T02:09:26;15.60;99.90
20759;DHT22;10539;53.686;9.158;2022-07-12T02:11:53;15.50;99.90
20759;DHT22;10539;53.686;9.158;2022-07-12T02:14:18;15.40;99.90
20759;DHT22;10539;53.686;9.158;2022-07-12T02:16:44;15.30;99.90
20759;DHT22;10539;53.686;9.158;2022-07-12T02:19:11;15.30;99.90
20759;DHT22;10539;53.686;9.158;2022-07-12T02:21:38;15.40;99.90
20759;DHT22;10539;53.686;9.158;2022-07-12T02:24:04;15.40;99.90
20759;DHT22;10539;53.686;9.158;2022-07-12T02:26:32;15.50;99.90
20759;DHT22;10539;53.686;9.158;2022-07-12T02:28:58;15.60;99.90
20759;DHT22;10539;53.686;9.158;2022-07-12T02:31:23;15.60;99.90
20759;DHT22;10539;53.686;9.158;2022-07-12T02:33:49;15.70;99.90
20759;DHT22;10539;53.686;9.158;2022-07-12T02:36:15;15.80;99.90
20759;DHT22;10539;53.686;9.158;2022-07-12T02:38:40;15.80;99.90
20759;DHT22;10539;53.686;9.158;2022-07-12T02:41:06;15.90;99.90
20759;DHT22;10539;53.686;9.158;2022-07-12T02:43:31;15.90;99.90
20759;DHT22;10539;53.686;9.158;2022-07-12T02:46:07;15.90;99.90
20759;DHT22;10539;53.686;9.158;2022-07-12T02:48:33;16.00;99.90
20759;DHT22;10539;53.686;9.158;2022-07-12T02:51:00;16.00;99.90
20759;DHT22;10539;53.686;9.158;2022-07-12T02:53:26;16.00;99.90
20759;DHT22;10539;53.686;9.158;2022-07-12T02:55:52;16.00;99.90
20759;DHT22;10539;53.686;9.158;2022-07-12T02:58:18;16.00;99.90
20759;DHT22;10539;53.686;9.158;2022-07-12T03:00:44;16.10;99.90
20759;DHT22;10539;53.686;9.158;2022-07-12T03:03:12;16.10;99.90
20759;DHT22;10539;53.686;9.158;2022-07-12T03:05:39;16.10;99.90
20759;DHT22;10539;53.686;9.158;2022-07-12T03:08:06;16.10;99.90
20759;DHT22;10539;53.686;9.158;2022-07-12T03:10:32;16.10;99.90
20759;DHT22;10539;53.686;9.158;2022-07-12T03:12:58;16.20;99.90
20759;DHT22;10539;53.686;9.158;2022-07-12T03:15:25;16.20;99.90
20759;DHT22;10539;53.686;9.158;2022-07-12T03:17:51;16.20;99.90
20759;DHT22;10539;53.686;9.158;2022-07-12T03:20:17;16.30;99.90
20759;DHT22;10539;53.686;9.158;2022-07-12T03:22:45;16.30;99.90
20759;DHT22;10539;53.686;9.158;2022-07-12T03:25:14;16.30;99.90
20759;DHT22;10539;53.686;9.158;2022-07-12T03:27:40;16.30;99.90
20759;DHT22;10539;53.686;9.158;2022-07-12T03:30:07;16.30;99.90
20759;DHT22;10539;53.686;9.158;2022-07-12T03:32:34;16.40;99.90
20759;DHT22;10539;53.686;9.158;2022-07-12T03:35:00;16.40;99.90
20759;DHT22;10539;53.686;9.158;2022-07-12T03:37:26;16.40;99.90
20759;DHT22;10539;53.686;9.158;2022-07-12T03:39:52;16.40;99.90
20759;DHT22;10539;53.686;9.158;2022-07-12T03:42:19;16.50;99.90
20759;DHT22;10539;53.686;9.158;2022-07-12T03:44:45;16.60;99.90
20759;DHT22;10539;53.686;9.158;2022-07-12T03:47:11;16.60;99.90
20759;DHT22;10539;53.686;9.158;2022-07-12T03:49:37;16.60;99.90
20759;DHT22;10539;53.686;9.158;2022-07-12T03:52:03;16.70;99.90
20759;DHT22;10539;53.686;9.158;2022-07-12T03:54:29;16.70;99.90
20759;DHT22;10539;53.686;9.158;2022-07-12T03:56:54;16.70;99.90
20759;DHT22;10539;53.686;9.158;2022-07-12T03:59:39;16.80;99.90
20759;DHT22;10539;53.686;9.158;2022-07-12T04:02:04;16.80;99.90
20759;DHT22;10539;53.686;9.158;2022-07-12T04:04:30;16.80;99.90
20759;DHT22;10539;53.686;9.158;2022-07-12T04:06:56;16.80;99.90
20759;DHT22;10539;53.686;9.158;2022-07-12T04:09:22;16.90;99.90
20759;DHT22;10539;53.686;9.158;2022-07-12T04:11:47;16.90;99.90
20759;DHT22;10539;53.686;9.158;2022-07-12T04:14:13;17.00;99.90
20759;DHT22;10539;53.686;9.158;2022-07-12T04:16:45;17.00;99.90
20759;DHT22;10539;53.686;9.158;2022-07-12T04:19:13;17.00;99.90
20759;DHT22;10539;53.686;9.158;2022-07-12T04:21:44;17.00;99.90
20759;DHT22;10539;53.686;9.158;2022-07-12T04:24:20;16.90;99.90
20759;DHT22;10539;53.686;9.158;2022-07-12T04:26:55;16.90;99.90
20759;DHT22;10539;53.686;9.158;2022-07-12T04:29:24;16.90;99.90
20759;DHT22;10539;53.686;9.158;2022-07-12T04:31:52;17.00;99.90
20759;DHT22;10539;53.686;9.158;2022-07-12T04:34:18;17.00;99.90
20759;DHT22;10539;53.686;9.158;2022-07-12T04:36:44;17.10;99.90
20759;DHT22;10539;53.686;9.158;2022-07-12T04:39:11;17.10;99.90
20759;DHT22;10539;53.686;9.158;2022-07-12T04:41:37;17.20;99.90
20759;DHT22;10539;53.686;9.158;2022-07-12T04:44:04;17.20;99.90
20759;DHT22;10539;53.686;9.158;2022-07-12T04:46:30;17.20;99.90
20759;DHT22;10539;53.686;9.158;2022-07-12T04:48:56;17.30;99.90
20759;DHT22;10539;53.686;9.158;2022-07-12T04:51:21;17.30;99.90
20759;DHT22;10539;53.686;9.158;2022-07-12T04:53:47;17.30;99.90
20759;DHT22;10539;53.686;9.158;2022-07-12T04:56:16;17.40;99.90
20759;DHT22;10539;53.686;9.158;2022-07-12T04:58:42;17.40;99.90
20759;DHT22;10539;53.686;9.158;2022-07-12T05:01:07;17.40;99.90
20759;DHT22;10539;53.686;9.158;2022-07-12T05:03:34;17.40;99.90
20759;DHT22;10539;53.686;9.158;2022-07-12T05:06:00;17.50;99.90
20759;DHT22;10539;53.686;9.158;2022-07-12T05:08:26;17.50;99.90
20759;DHT22;10539;53.686;9.158;2022-07-12T05:10:52;17.50;99.90
20759;DHT22;10539;53.686;9.158;2022-07-12T05:13:36;17.50;99.90
20759;DHT22;10539;53.686;9.158;2022-07-12T05:16:02;17.60;99.90
20759;DHT22;10539;53.686;9.158;2022-07-12T05:18:27;17.60;99.90
20759;DHT22;10539;53.686;9.158;2022-07-12T05:20:53;17.70;99.90
20759;DHT22;10539;53.686;9.158;2022-07-12T05:23:19;17.70;99.90
20759;DHT22;10539;53.686;9.158;2022-07-12T05:25:45;17.80;99.90
20759;DHT22;10539;53.686;9.158;2022-07-12T05:28:11;17.80;99.90
20759;DHT22;10539;53.686;9.158;2022-07-12T05:30:37;17.80;99.90
20759;DHT22;10539;53.686;9.158;2022-07-12T05:33:02;17.90;99.90
20759;DHT22;10539;53.686;9.158;2022-07-12T05:35:28;17.90;99.90
20759;DHT22;10539;53.686;9.158;2022-07-12T05:37:54;17.90;99.90
20759;DHT22;10539;53.686;9.158;2022-07-12T05:40:20;17.90;99.90
20759;DHT22;10539;53.686;9.158;2022-07-12T05:42:45;18.00;99.90
20759;DHT22;10539;53.686;9.158;2022-07-12T05:45:12;18.00;99.90
20759;DHT22;10539;53.686;9.158;2022-07-12T05:47:37;18.00;99.90
20759;DHT22;10539;53.686;9.158;2022-07-12T05:50:04;18.00;99.90
20759;DHT22;10539;53.686;9.158;2022-07-12T05:52:30;18.10;99.90
20759;DHT22;10539;53.686;9.158;2022-07-12T05:55:15;18.10;99.90
20759;DHT22;10539;53.686;9.158;2022-07-12T05:57:40;18.20;99.90
20759;DHT22;10539;53.686;9.158;2022-07-12T06:00:06;18.20;99.90
20759;DHT22;10539;53.686;9.158;2022-07-12T06:02:32;18.30;99.90
20759;DHT22;10539;53.686;9.158;2022-07-12T06:04:58;18.40;99.90
20759;DHT22;10539;53.686;9.158;2022-07-12T06:07:24;18.50;99.90
20759;DHT22;10539;53.686;9.158;2022-07-12T06:09:49;18.50;99.90
20759;DHT22;10539;53.686;9.158;2022-07-12T06:12:15;18.50;99.90
20759;DHT22;10539;53.686;9.158;2022-07-12T06:14:41;18.50;99.90
20759;DHT22;10539;53.686;9.158;2022-07-12T06:17:06;18.50;99.90
20759;DHT22;10539;53.686;9.158;2022-07-12T06:19:33;18.50;99.90
20759;DHT22;10539;53.686;9.158;2022-07-12T06:21:59;18.60;99.90
20759;DHT22;10539;53.686;9.158;2022-07-12T06:24:25;18.70;99.90
20759;DHT22;10539;53.686;9.158;2022-07-12T06:26:51;18.70;99.90
20759;DHT22;10539;53.686;9.158;2022-07-12T06:29:17;18.80;99.90
20759;DHT22;10539;53.686;9.158;2022-07-12T06:31:42;18.90;99.90
20759;DHT22;10539;53.686;9.158;2022-07-12T06:34:08;19.00;99.90
20759;DHT22;10539;53.686;9.158;2022-07-12T06:36:34;19.00;99.90
20759;DHT22;10539;53.686;9.158;2022-07-12T06:38:59;19.10;99.90
20759;DHT22;10539;53.686;9.158;2022-07-12T06:41:25;19.20;99.90
20759;DHT22;10539;53.686;9.158;2022-07-12T06:43:51;19.20;99.90
20759;DHT22;10539;53.686;9.158;2022-07-12T06:46:17;19.30;99.90
20759;DHT22;10539;53.686;9.158;2022-07-12T06:48:43;19.30;99.90
20759;DHT22;10539;53.686;9.158;2022-07-12T06:51:11;19.30;99.90
20759;DHT22;10539;53.686;9.158;2022-07-12T06:53:38;19.40;99.90
20759;DHT22;10539;53.686;9.158;2022-07-12T06:56:04;19.60;99.90
20759;DHT22;10539;53.686;9.158;2022-07-12T06:58:30;19.60;99.90
20759;DHT22;10539;53.686;9.158;2022-07-12T07:00:56;19.70;99.90
20759;DHT22;10539;53.686;9.158;2022-07-12T07:03:21;19.80;99.90
20759;DHT22;10539;53.686;9.158;2022-07-12T07:05:50;19.80;99.90
20759;DHT22;10539;53.686;9.158;2022-07-12T07:08:16;19.90;99.90
20759;DHT22;10539;53.686;9.158;2022-07-12T07:10:41;20.00;99.90
20759;DHT22;10539;53.686;9.158;2022-07-12T07:13:08;20.10;99.90
20759;DHT22;10539;53.686;9.158;2022-07-12T07:15:38;20.30;99.90
20759;DHT22;10539;53.686;9.158;2022-07-12T07:18:04;20.40;99.90
20759;DHT22;10539;53.686;9.158;2022-07-12T07:20:30;20.50;99.90
20759;DHT22;10539;53.686;9.158;2022-07-12T07:22:56;20.50;99.90
20759;DHT22;10539;53.686;9.158;2022-07-12T07:25:21;20.60;99.90
20759;DHT22;10539;53.686;9.158;2022-07-12T07:27:47;20.60;99.90
20759;DHT22;10539;53.686;9.158;2022-07-12T07:30:13;20.60;99.90
20759;DHT22;10539;53.686;9.158;2022-07-12T07:32:58;20.60;99.90
20759;DHT22;10539;53.686;9.158;2022-07-12T07:35:23;20.60;99.90
20759;DHT22;10539;53.686;9.158;2022-07-12T07:37:49;20.70;99.90
20759;DHT22;10539;53.686;9.158;2022-07-12T07:40:18;20.80;99.90
20759;DHT22;10539;53.686;9.158;2022-07-12T07:42:46;20.90;99.90
20759;DHT22;10539;53.686;9.158;2022-07-12T07:45:12;21.00;99.90
20759;DHT22;10539;53.686;9.158;2022-07-12T07:47:48;20.90;99.90
20759;DHT22;10539;53.686;9.158;2022-07-12T07:50:15;20.90;99.90
20759;DHT22;10539;53.686;9.158;2022-07-12T07:52:41;21.00;99.90
20759;DHT22;10539;53.686;9.158;2022-07-12T07:55:07;21.10;99.90
20759;DHT22;10539;53.686;9.158;2022-07-12T07:57:33;21.20;99.90
20759;DHT22;10539;53.686;9.158;2022-07-12T07:59:59;21.30;99.90
20759;DHT22;10539;53.686;9.158;2022-07-12T08:02:24;21.20;99.90
20759;DHT22;10539;53.686;9.158;2022-07-12T08:04:50;21.20;99.90
20759;DHT22;10539;53.686;9.158;2022-07-12T08:07:17;21.20;99.90
20759;DHT22;10539;53.686;9.158;2022-07-12T08:09:43;21.20;99.90
20759;DHT22;10539;53.686;9.158;2022-07-12T08:12:08;21.30;99.90
20759;DHT22;10539;53.686;9.158;2022-07-12T08:14:34;21.30;99.90
20759;DHT22;10539;53.686;9.158;2022-07-12T08:17:00;21.20;99.90
20759;DHT22;10539;53.686;9.158;2022-07-12T08:19:25;21.20;99.90
20759;DHT22;10539;53.686;9.158;2022-07-12T08:21:51;21.20;99.90
20759;DHT22;10539;53.686;9.158;2022-07-12T08:24:17;21.20;99.90
20759;DHT22;10539;53.686;9.158;2022-07-12T08:26:43;21.40;99.90
20759;DHT22;10539;53.686;9.158;2022-07-12T08:29:08;21.50;99.90
20759;DHT22;10539;53.686;9.158;2022-07-12T08:31:34;21.50;99.90
20759;DHT22;10539;53.686;9.158;2022-07-12T08:34:00;21.40;99.90
20759;DHT22;10539;53.686;9.158;2022-07-12T08:36:26;21.40;99.90
20759;DHT22;10539;53.686;9.158;2022-07-12T08:38:52;21.50;99.90
20759;DHT22;10539;53.686;9.158;2022-07-12T08:41:18;21.50;99.90
20759;DHT22;10539;53.686;9.158;2022-07-12T08:43:43;21.50;99.90
20759;DHT22;10539;53.686;9.158;2022-07-12T08:46:11;21.50;99.90
20759;DHT22;10539;53.686;9.158;2022-07-12T08:48:38;21.50;99.90
20759;DHT22;10539;53.686;9.158;2022-07-12T08:51:06;21.60;99.90
20759;DHT22;10539;53.686;9.158;2022-07-12T08:53:32;21.70;99.90
20759;DHT22;10539;53.686;9.158;2022-07-12T08:55:58;21.80;99.90
20759;DHT22;10539;53.686;9.158;2022-07-12T08:58:25;21.80;99.90
20759;DHT22;10539;53.686;9.158;2022-07-12T09:00:51;21.90;99.90
20759;DHT22;10539;53.686;9.158;2022-07-12T09:03:18;21.80;99.90
20759;DHT22;10539;53.686;9.158;2022-07-12T09:05:55;21.90;99.90
20759;DHT22;10539;53.686;9.158;2022-07-12T09:08:29;22.20;99.90
20759;DHT22;10539;53.686;9.158;2022-07-12T09:10:57;22.50;99.90
20759;DHT22;10539;53.686;9.158;2022-07-12T09:13:52;22.60;99.90
20759;DHT22;10539;53.686;9.158;2022-07-12T09:16:25;22.60;99.90
20759;DHT22;10539;53.686;9.158;2022-07-12T09:18:51;22.60;99.90
20759;DHT22;10539;53.686;9.158;2022-07-12T09:21:36;22.60;99.90
20759;DHT22;10539;53.686;9.158;2022-07-12T09:24:02;22.70;99.90
20759;DHT22;10539;53.686;9.158;2022-07-12T09:26:32;22.80;99.90
20759;DHT22;10539;53.686;9.158;2022-07-12T09:29:08;22.80;99.90
20759;DHT22;10539;53.686;9.158;2022-07-12T09:31:48;23.00;99.90
20759;DHT22;10539;53.686;9.158;2022-07-12T09:34:32;23.00;99.90
20759;DHT22;10539;53.686;9.158;2022-07-12T09:37:16;23.00;99.90
20759;DHT22;10539;53.686;9.158;2022-07-12T09:39:43;23.00;99.90
20759;DHT22;10539;53.686;9.158;2022-07-12T09:42:09;22.90;99.90
20759;DHT22;10539;53.686;9.158;2022-07-12T09:44:36;22.80;99.90
20759;DHT22;10539;53.686;9.158;2022-07-12T09:47:02;22.90;99.90
20759;DHT22;10539;53.686;9.158;2022-07-12T09:49:28;22.90;99.90
20759;DHT22;10539;53.686;9.158;2022-07-12T09:51:56;23.00;99.90
20759;DHT22;10539;53.686;9.158;2022-07-12T09:54:27;23.00;99.90
20759;DHT22;10539;53.686;9.158;2022-07-12T09:56:54;22.90;99.90
20759;DHT22;10539;53.686;9.158;2022-07-12T09:59:23;22.90;99.90
20759;DHT22;10539;53.686;9.158;2022-07-12T10:01:51;22.90;99.90
20759;DHT22;10539;53.686;9.158;2022-07-12T10:04:21;23.00;99.90
20759;DHT22;10539;53.686;9.158;2022-07-12T10:06:50;23.00;99.90
20759;DHT22;10539;53.686;9.158;2022-07-12T10:09:16;23.00;99.90
20759;DHT22;10539;53.686;9.158;2022-07-12T10:11:46;23.10;99.90
20759;DHT22;10539;53.686;9.158;2022-07-12T10:14:21;23.00;99.90
20759;DHT22;10539;53.686;9.158;2022-07-12T10:16:51;23.20;99.90
20759;DHT22;10539;53.686;9.158;2022-07-12T10:20:02;23.30;99.90
20759;DHT22;10539;53.686;9.158;2022-07-12T10:22:29;23.30;99.90
20759;DHT22;10539;53.686;9.158;2022-07-12T10:29:05;23.50;99.90
20759;DHT22;10539;53.686;9.158;2022-07-12T10:31:38;23.60;99.90
20759;DHT22;10539;53.686;9.158;2022-07-12T10:34:28;23.70;99.90
20759;DHT22;10539;53.686;9.158;2022-07-12T10:37:18;23.70;99.90
20759;DHT22;10539;53.686;9.158;2022-07-12T10:40:14;23.90;99.90
20759;DHT22;10539;53.686;9.158;2022-07-12T10:45:42;23.90;99.90
20759;DHT22;10539;53.686;9.158;2022-07-12T10:48:21;23.70;99.90
20759;DHT22;10539;53.686;9.158;2022-07-12T10:50:57;23.70;99.90
20759;DHT22;10539;53.686;9.158;2022-07-12T10:53:36;23.80;99.90
20759;DHT22;10539;53.686;9.158;2022-07-12T10:56:23;23.90;99.90
20759;DHT22;10539;53.686;9.158;2022-07-12T10:59:04;24.00;99.90
20759;DHT22;10539;53.686;9.158;2022-07-12T11:01:46;24.10;99.90
20759;DHT22;10539;53.686;9.158;2022-07-12T11:04:16;24.10;99.90
20759;DHT22;10539;53.686;9.158;2022-07-12T11:06:49;24.00;99.90
20759;DHT22;10539;53.686;9.158;2022-07-12T11:09:32;24.10;99.90
20759;DHT22;10539;53.686;9.158;2022-07-12T11:12:06;24.20;99.90
20759;DHT22;10539;53.686;9.158;2022-07-12T11:14:44;24.30;99.90
20759;DHT22;10539;53.686;9.158;2022-07-12T11:17:27;24.40;99.90
20759;DHT22;10539;53.686;9.158;2022-07-12T11:20:13;24.40;99.90
20759;DHT22;10539;53.686;9.158;2022-07-12T11:22:55;24.50;99.90
20759;DHT22;10539;53.686;9.158;2022-07-12T11:25:38;24.60;99.90
20759;DHT22;10539;53.686;9.158;2022-07-12T11:28:10;24.50;99.90
20759;DHT22;10539;53.686;9.158;2022-07-12T11:31:02;24.50;99.90
20759;DHT22;10539;53.686;9.158;2022-07-12T11:33:40;24.50;99.90
20759;DHT22;10539;53.686;9.158;2022-07-12T11:36:24;24.50;99.90
20759;DHT22;10539;53.686;9.158;2022-07-12T11:39:06;24.60;99.90
20759;DHT22;10539;53.686;9.158;2022-07-12T11:41:39;24.70;99.90
20759;DHT22;10539;53.686;9.158;2022-07-12T11:44:18;24.60;99.90
20759;DHT22;10539;53.686;9.158;2022-07-12T11:46:55;24.60;99.90
20759;DHT22;10539;53.686;9.158;2022-07-12T11:49:24;24.70;99.90
20759;DHT22;10539;53.686;9.158;2022-07-12T11:51:52;24.70;99.90
20759;DHT22;10539;53.686;9.158;2022-07-12T11:54:47;24.70;99.90
20759;DHT22;10539;53.686;9.158;2022-07-12T11:57:13;24.80;99.90
20759;DHT22;10539;53.686;9.158;2022-07-12T11:59:40;24.90;99.90
20759;DHT22;10539;53.686;9.158;2022-07-12T12:02:12;25.10;99.90
20759;DHT22;10539;53.686;9.158;2022-07-12T12:04:46;25.20;99.90
20759;DHT22;10539;53.686;9.158;2022-07-12T12:07:12;25.20;99.90
20759;DHT22;10539;53.686;9.158;2022-07-12T12:10:09;25.20;99.90
20759;DHT22;10539;53.686;9.158;2022-07-12T12:15:12;25.10;99.90
20759;DHT22;10539;53.686;9.158;2022-07-12T12:17:44;25.20;99.90
20759;DHT22;10539;53.686;9.158;2022-07-12T12:20:13;25.30;99.90
20759;DHT22;10539;53.686;9.158;2022-07-12T12:22:41;25.40;99.90
20759;DHT22;10539;53.686;9.158;2022-07-12T12:25:07;25.60;99.90
20759;DHT22;10539;53.686;9.158;2022-07-12T12:28:07;25.70;99.90
20759;DHT22;10539;53.686;9.158;2022-07-12T12:30:34;25.80;99.90
20759;DHT22;10539;53.686;9.158;2022-07-12T12:33:03;25.90;99.90
20759;DHT22;10539;53.686;9.158;2022-07-12T12:35:34;25.90;99.90
20759;DHT22;10539;53.686;9.158;2022-07-12T12:38:11;25.90;99.90
20759;DHT22;10539;53.686;9.158;2022-07-12T12:40:37;26.00;99.90
20759;DHT22;10539;53.686;9.158;2022-07-12T12:43:18;26.10;99.90
20759;DHT22;10539;53.686;9.158;2022-07-12T12:45:51;26.20;99.90
20759;DHT22;10539;53.686;9.158;2022-07-12T12:48:19;26.10;99.90
20759;DHT22;10539;53.686;9.158;2022-07-12T12:50:47;26.00;99.90
20759;DHT22;10539;53.686;9.158;2022-07-12T12:53:17;26.10;99.90
20759;DHT22;10539;53.686;9.158;2022-07-12T12:55:45;26.20;99.90
20759;DHT22;10539;53.686;9.158;2022-07-12T12:58:12;26.20;99.90
20759;DHT22;10539;53.686;9.158;2022-07-12T13:00:40;26.40;99.90
20759;DHT22;10539;53.686;9.158;2022-07-12T13:03:11;26.40;99.90
20759;DHT22;10539;53.686;9.158;2022-07-12T13:05:38;26.40;99.90
20759;DHT22;10539;53.686;9.158;2022-07-12T13:08:05;26.40;99.90
20759;DHT22;10539;53.686;9.158;2022-07-12T13:10:32;26.50;99.90
20759;DHT22;10539;53.686;9.158;2022-07-12T13:12:58;26.50;99.90
20759;DHT22;10539;53.686;9.158;2022-07-12T13:15:25;26.50;99.90
20759;DHT22;10539;53.686;9.158;2022-07-12T13:17:51;26.50;99.90
20759;DHT22;10539;53.686;9.158;2022-07-12T13:20:17;26.50;99.90
20759;DHT22;10539;53.686;9.158;2022-07-12T13:22:43;26.30;99.90
20759;DHT22;10539;53.686;9.158;2022-07-12T13:25:14;26.30;99.90
20759;DHT22;10539;53.686;9.158;2022-07-12T13:27:41;26.30;99.90
20759;DHT22;10539;53.686;9.158;2022-07-12T13:30:09;26.30;99.90
20759;DHT22;10539;53.686;9.158;2022-07-12T13:32:36;26.40;99.90
20759;DHT22;10539;53.686;9.158;2022-07-12T13:35:04;26.40;99.90
20759;DHT22;10539;53.686;9.158;2022-07-12T13:37:32;26.50;99.90
20759;DHT22;10539;53.686;9.158;2022-07-12T13:39:59;26.50;99.90
20759;DHT22;10539;53.686;9.158;2022-07-12T13:42:47;26.50;99.90
20759;DHT22;10539;53.686;9.158;2022-07-12T13:45:24;26.60;99.90
20759;DHT22;10539;53.686;9.158;2022-07-12T13:47:50;26.70;99.90
20759;DHT22;10539;53.686;9.158;2022-07-12T13:50:19;26.70;99.90
20759;DHT22;10539;53.686;9.158;2022-07-12T13:52:46;26.70;99.90
20759;DHT22;10539;53.686;9.158;2022-07-12T13:55:15;26.70;99.90
20759;DHT22;10539;53.686;9.158;2022-07-12T13:57:42;26.60;99.90
20759;DHT22;10539;53.686;9.158;2022-07-12T14:00:12;26.50;99.90
20759;DHT22;10539;53.686;9.158;2022-07-12T14:02:40;26.50;99.90
20759;DHT22;10539;53.686;9.158;2022-07-12T14:05:07;26.60;99.90
20759;DHT22;10539;53.686;9.158;2022-07-12T14:07:34;26.60;99.90
20759;DHT22;10539;53.686;9.158;2022-07-12T14:10:00;26.50;99.90
20759;DHT22;10539;53.686;9.158;2022-07-12T14:12:26;26.60;99.90
20759;DHT22;10539;53.686;9.158;2022-07-12T14:14:53;26.50;99.90
20759;DHT22;10539;53.686;9.158;2022-07-12T14:17:57;26.50;99.90
20759;DHT22;10539;53.686;9.158;2022-07-12T14:20:22;26.50;99.90
20759;DHT22;10539;53.686;9.158;2022-07-12T14:22:48;26.60;99.90
20759;DHT22;10539;53.686;9.158;2022-07-12T14:25:15;26.50;99.90
20759;DHT22;10539;53.686;9.158;2022-07-12T14:27:42;26.60;99.90
20759;DHT22;10539;53.686;9.158;2022-07-12T14:30:10;26.60;99.90
20759;DHT22;10539;53.686;9.158;2022-07-12T14:32:37;26.60;99.90
20759;DHT22;10539;53.686;9.158;2022-07-12T14:35:04;26.60;99.90
20759;DHT22;10539;53.686;9.158;2022-07-12T14:37:31;26.60;99.90
20759;DHT22;10539;53.686;9.158;2022-07-12T14:39:57;26.50;99.90
20759;DHT22;10539;53.686;9.158;2022-07-12T14:42:23;26.60;99.90
20759;DHT22;10539;53.686;9.158;2022-07-12T14:44:49;26.60;99.90
20759;DHT22;10539;53.686;9.158;2022-07-12T14:47:14;26.50;99.90
20759;DHT22;10539;53.686;9.158;2022-07-12T14:49:40;26.60;99.90
20759;DHT22;10539;53.686;9.158;2022-07-12T14:52:06;26.60;99.90
20759;DHT22;10539;53.686;9.158;2022-07-12T14:54:32;26.60;99.90
20759;DHT22;10539;53.686;9.158;2022-07-12T14:56:58;26.70;99.90
20759;DHT22;10539;53.686;9.158;2022-07-12T14:59:24;26.70;99.90
20759;DHT22;10539;53.686;9.158;2022-07-12T15:01:50;26.70;99.90
20759;DHT22;10539;53.686;9.158;2022-07-12T15:04:18;26.80;99.90
20759;DHT22;10539;53.686;9.158;2022-07-12T15:06:44;26.90;99.90
20759;DHT22;10539;53.686;9.158;2022-07-12T15:09:10;27.00;99.90
20759;DHT22;10539;53.686;9.158;2022-07-12T15:11:35;26.90;99.90
20759;DHT22;10539;53.686;9.158;2022-07-12T15:14:02;26.80;99.90
20759;DHT22;10539;53.686;9.158;2022-07-12T15:16:28;26.80;99.90
20759;DHT22;10539;53.686;9.158;2022-07-12T15:18:54;26.80;99.90
20759;DHT22;10539;53.686;9.158;2022-07-12T15:21:20;26.90;99.90
20759;DHT22;10539;53.686;9.158;2022-07-12T15:23:46;26.90;99.90
20759;DHT22;10539;53.686;9.158;2022-07-12T15:26:11;27.00;99.90
20759;DHT22;10539;53.686;9.158;2022-07-12T15:28:59;26.90;99.90
20759;DHT22;10539;53.686;9.158;2022-07-12T15:31:27;26.90;99.90
20759;DHT22;10539;53.686;9.158;2022-07-12T15:33:53;26.90;99.90
20759;DHT22;10539;53.686;9.158;2022-07-12T15:36:20;26.90;99.90
20759;DHT22;10539;53.686;9.158;2022-07-12T15:38:46;26.90;99.90
20759;DHT22;10539;53.686;9.158;2022-07-12T15:41:12;26.80;99.90
20759;DHT22;10539;53.686;9.158;2022-07-12T15:43:39;26.80;99.90
20759;DHT22;10539;53.686;9.158;2022-07-12T15:46:06;26.80;99.90
20759;DHT22;10539;53.686;9.158;2022-07-12T15:48:33;26.70;99.90
20759;DHT22;10539;53.686;9.158;2022-07-12T15:50:58;26.70;99.90